createdAt,value
2019-02-23T00:00:26.065Z,104052.03
2019-02-23T00:03:30.221Z,104046.86
2019-02-23T00:06:34.345Z,104036.05
2019-02-23T00:09:38.486Z,104029.13
2019-02-23T00:12:42.608Z,104010.98
2019-02-23T00:15:46.778Z,104003.25
2019-02-23T00:18:50.922Z,104012.36
2019-02-23T00:21:55.045Z,104015.38
2019-02-23T00:24:59.188Z,104009.77
2019-02-23T00:28:03.309Z,104002.44
2019-02-23T00:31:07.458Z,104009.80
2019-02-23T00:34:11.624Z,104005.03
2019-02-23T00:37:15.744Z,104000.29
2019-02-23T00:40:19.892Z,103993.86
2019-02-23T00:43:24.008Z,103989.98
2019-02-23T00:46:28.152Z,104002.06
2019-02-23T00:49:36.344Z,103999.92
2019-02-23T00:52:38.116Z,103997.33
2019-02-23T00:55:42.256Z,103992.59
2019-02-23T00:58:46.378Z,103994.37
2019-02-23T01:01:50.520Z,103990.05
2019-02-23T01:04:54.709Z,103981.39
2019-02-23T01:07:58.784Z,103973.19
2019-02-23T01:11:02.973Z,103962.80
2019-02-23T01:14:07.131Z,103947.70
2019-02-23T01:17:11.333Z,103953.30
2019-02-23T01:20:15.456Z,103957.22
2019-02-23T01:23:19.601Z,103966.28
2019-02-23T01:26:23.747Z,103974.09
2019-02-23T01:29:27.869Z,103971.91
2019-02-23T01:32:32.008Z,103966.30
2019-02-23T01:35:36.133Z,103977.53
2019-02-23T01:38:40.281Z,103985.31
2019-02-23T01:41:44.438Z,103994.39
2019-02-23T01:44:48.561Z,104005.22
2019-02-23T01:47:52.754Z,104011.25
2019-02-23T01:50:56.879Z,104007.81
2019-02-23T01:54:01.025Z,104012.14
2019-02-23T01:57:05.221Z,104011.28
2019-02-23T02:00:11.877Z,104022.14
2019-02-23T02:03:16.018Z,104029.50
2019-02-23T02:06:20.140Z,104051.07
2019-02-23T02:09:24.357Z,104060.16
2019-02-23T02:12:28.651Z,104057.17
2019-02-23T02:15:32.969Z,104054.16
2019-02-23T02:18:37.122Z,104061.95
2019-02-23T02:21:41.254Z,104062.38
2019-02-23T02:24:45.392Z,104062.40
2019-02-23T02:27:49.512Z,104059.80
2019-02-23T02:30:53.665Z,104061.10
2019-02-23T02:34:08.459Z,104057.64
2019-02-23T02:37:12.581Z,104057.66
2019-02-23T02:40:16.754Z,104046.89
2019-02-23T02:43:20.876Z,104038.69
2019-02-23T02:46:25.020Z,104026.97
2019-02-23T02:49:29.165Z,104010.59
2019-02-23T02:52:33.294Z,104017.08
2019-02-23T02:55:37.437Z,104017.08
2019-02-23T02:58:41.563Z,104008.02
2019-02-23T03:01:45.703Z,104000.25
2019-02-23T03:04:49.881Z,103995.92
2019-02-23T03:07:53.973Z,103982.10
2019-02-23T03:10:58.112Z,103985.55
2019-02-23T03:14:02.237Z,103980.37
2019-02-23T03:17:06.381Z,103977.41
2019-02-23T03:20:10.709Z,103979.58
2019-02-23T03:23:14.833Z,103981.72
2019-02-23T03:26:18.977Z,103992.95
2019-02-23T03:29:23.114Z,103993.39
2019-02-23T03:32:27.258Z,103995.59
2019-02-23T03:35:31.382Z,104006.37
2019-02-23T03:38:35.529Z,104012.44
2019-02-23T03:41:39.678Z,104015.05
2019-02-23T03:44:43.809Z,104012.47
2019-02-23T03:47:47.953Z,104015.91
2019-02-23T03:50:52.077Z,104012.02
2019-02-23T03:53:56.223Z,104007.28
2019-02-23T03:57:00.354Z,104007.28
2019-02-23T04:00:06.335Z,104002.14
2019-02-23T04:03:10.629Z,104000.41
2019-02-23T04:06:14.748Z,103995.61
2019-02-23T04:09:18.893Z,103991.70
2019-02-23T04:12:23.021Z,103989.61
2019-02-23T04:15:27.182Z,103994.79
2019-02-23T04:18:31.306Z,103997.83
2019-02-23T04:21:35.451Z,103998.69
2019-02-23T04:24:39.572Z,103995.23
2019-02-23T04:27:44.880Z,104004.73
2019-02-23T04:30:49.023Z,104008.63
2019-02-23T04:33:53.150Z,104005.20
2019-02-23T04:36:57.296Z,104017.73
2019-02-23T04:40:01.417Z,104031.55
2019-02-23T04:43:05.564Z,104032.41
2019-02-23T04:46:09.714Z,104038.89
2019-02-23T04:49:13.833Z,104058.33
2019-02-23T04:52:17.981Z,104058.33
2019-02-23T04:55:22.104Z,104060.91
2019-02-23T04:58:26.251Z,104049.25
2019-02-23T05:01:30.375Z,104046.66
2019-02-23T05:04:34.521Z,104055.72
2019-02-23T05:07:38.664Z,104052.71
2019-02-23T05:10:42.789Z,104056.59
2019-02-23T05:13:46.932Z,104044.50
2019-02-23T05:16:51.057Z,104038.45
2019-02-23T05:19:55.225Z,104024.62
2019-02-23T05:22:59.393Z,104018.58
2019-02-23T05:26:03.520Z,104023.33
2019-02-23T05:29:07.666Z,104025.49
2019-02-23T05:32:11.791Z,104003.98
2019-02-23T05:35:15.932Z,104005.19
2019-02-23T05:38:20.061Z,104006.48
2019-02-23T05:41:24.205Z,104004.31
2019-02-23T05:44:28.353Z,104002.16
2019-02-23T05:47:32.478Z,104007.78
2019-02-23T05:50:36.629Z,104019.45
2019-02-23T05:53:40.747Z,104014.26
2019-02-23T05:56:44.888Z,104019.02
2019-02-23T05:59:49.015Z,104019.45
2019-02-23T06:02:53.157Z,104019.02
2019-02-23T06:05:57.300Z,104010.38
2019-02-23T06:09:01.424Z,104001.30
2019-02-23T06:12:05.568Z,104006.48
2019-02-23T06:15:12.131Z,104008.21
2019-02-23T06:18:16.272Z,104007.35
2019-02-23T06:21:20.417Z,104008.65
2019-02-23T06:24:24.548Z,104010.83
2019-02-23T06:27:28.695Z,104015.16
2019-02-23T06:30:32.817Z,104016.88
2019-02-23T06:33:36.980Z,104024.70
2019-02-23T06:36:41.116Z,104025.52
2019-02-23T06:39:45.240Z,104024.66
2019-02-23T06:42:49.380Z,104025.09
2019-02-23T06:45:53.506Z,104028.98
2019-02-23T06:48:57.651Z,104036.32
2019-02-23T06:52:04.516Z,104033.77
2019-02-23T06:55:08.164Z,104033.73
2019-02-23T06:58:12.309Z,104030.27
2019-02-23T07:01:16.453Z,104030.27
2019-02-23T07:04:20.572Z,104020.34
2019-02-23T07:07:24.720Z,104021.19
2019-02-23T07:10:28.848Z,104027.67
2019-02-23T07:13:32.993Z,104029.39
2019-02-23T07:16:37.142Z,104025.94
2019-02-23T07:19:41.261Z,104017.30
2019-02-23T07:22:45.461Z,104012.53
2019-02-23T07:25:49.528Z,104017.71
2019-02-23T07:28:53.754Z,104017.73
2019-02-23T07:31:57.902Z,104003.89
2019-02-23T07:35:02.025Z,104003.90
2019-02-23T07:38:06.168Z,104000.44
2019-02-23T07:41:10.295Z,103997.84
2019-02-23T07:44:14.438Z,103996.11
2019-02-23T07:47:18.580Z,103992.66
2019-02-23T07:50:22.704Z,103989.63
2019-02-23T07:53:26.854Z,103985.73
2019-02-23T07:56:30.979Z,103996.11
2019-02-23T07:59:35.118Z,104000.88
2019-02-23T08:02:39.264Z,104005.20
2019-02-23T08:05:43.385Z,104006.48
2019-02-23T08:08:47.678Z,103976.26
2019-02-23T08:11:51.852Z,103974.95
2019-02-23T08:14:55.977Z,103982.28
2019-02-23T08:18:00.120Z,103981.84
2019-02-23T08:21:04.241Z,103974.08
2019-02-23T08:24:08.388Z,103966.30
2019-02-23T08:27:12.527Z,103964.14
2019-02-23T08:30:17.285Z,103961.56
2019-02-23T08:33:21.437Z,103961.61
2019-02-23T08:36:25.555Z,103951.26
2019-02-23T08:39:29.696Z,103956.42
2019-02-23T08:42:33.847Z,103944.75
2019-02-23T08:45:37.970Z,103932.23
2019-02-23T08:48:42.124Z,103944.78
2019-02-23T08:51:46.250Z,103948.69
2019-02-23T08:54:50.402Z,103946.15
2019-02-23T08:57:54.551Z,103956.52
2019-02-23T09:00:58.673Z,103965.50
2019-02-23T09:04:02.824Z,103974.05
2019-02-23T09:07:06.971Z,103978.70
2019-02-23T09:10:12.798Z,103989.84
2019-02-23T09:13:16.945Z,103989.31
2019-02-23T09:16:21.073Z,103981.02
2019-02-23T09:19:25.226Z,103974.48
2019-02-23T09:22:29.369Z,103973.10
2019-02-23T09:25:33.493Z,103973.04
2019-02-23T09:28:37.704Z,103966.52
2019-02-23T09:31:41.832Z,103965.75
2019-02-23T09:34:45.977Z,103960.34
2019-02-23T09:37:50.124Z,103953.00
2019-02-23T09:40:54.245Z,103949.48
2019-02-23T09:43:58.389Z,103942.06
2019-02-23T09:47:02.517Z,103936.38
2019-02-23T09:50:07.102Z,103943.72
2019-02-23T09:53:11.690Z,103944.07
2019-02-23T09:56:15.852Z,103947.47
2019-02-23T09:59:19.984Z,103954.77
2019-02-23T10:02:24.133Z,103949.13
2019-02-23T10:05:28.253Z,103947.72
2019-02-23T10:08:32.468Z,103935.58
2019-02-23T10:11:36.596Z,103935.12
2019-02-23T10:30:55.029Z,103913.58
2019-02-23T10:36:31.142Z,103901.59
2019-02-23T10:39:34.412Z,103902.86
2019-02-23T10:46:46.349Z,103905.88
2019-02-23T10:49:49.621Z,103909.00
2019-02-23T10:52:52.896Z,103899.68
2019-02-23T10:55:56.250Z,103904.37
2019-02-23T11:01:06.915Z,103918.77
2019-02-23T11:04:10.775Z,103925.39
2019-02-23T11:07:14.906Z,103930.95
2019-02-23T11:29:38.256Z,103911.12
2019-02-23T11:32:42.446Z,103886.35
2019-02-23T11:35:46.595Z,103914.98
2019-02-23T11:39:59.285Z,103929.00
2019-02-23T11:43:04.334Z,103919.18
2019-02-23T11:46:08.459Z,103918.91
2019-02-23T11:50:50.644Z,103914.66
2019-02-23T11:54:16.500Z,103906.09
2019-02-23T11:57:20.634Z,103909.68
2019-02-23T12:00:30.653Z,103904.57
2019-02-23T12:03:34.803Z,103893.13
2019-02-23T12:06:38.930Z,103882.91
2019-02-23T12:09:44.025Z,103882.86
2019-02-23T12:12:48.167Z,103885.14
2019-02-23T12:15:52.322Z,103883.77
2019-02-23T12:19:05.294Z,103884.84
2019-02-23T12:22:12.226Z,103874.78
2019-02-23T12:25:21.301Z,103869.90
2019-02-23T12:28:25.451Z,103861.69
2019-02-23T12:31:35.343Z,103867.55
2019-02-23T12:34:47.261Z,103859.04
2019-02-23T12:37:51.391Z,103862.91
2019-02-23T12:40:55.564Z,103856.08
2019-02-23T12:43:59.718Z,103853.17
2019-02-23T12:47:03.865Z,103847.80
2019-02-23T12:50:12.150Z,103849.68
2019-02-23T12:53:18.217Z,103842.63
2019-02-23T12:59:00.360Z,103830.89
2019-02-23T13:02:04.495Z,103832.71
2019-02-23T13:05:15.427Z,103827.87
2019-02-23T13:08:32.744Z,103823.97
2019-02-23T13:11:36.864Z,103825.14
2019-02-23T13:15:16.049Z,103821.58
2019-02-23T13:18:33.225Z,103817.68
2019-02-23T13:21:53.760Z,103818.34
2019-02-23T13:25:36.078Z,103808.84
2019-02-23T13:29:11.789Z,103807.05
2019-02-23T13:32:30.979Z,103808.25
2019-02-23T13:36:20.772Z,103800.91
2019-02-23T13:39:48.312Z,103798.36
2019-02-23T13:48:03.063Z,103787.66
2019-02-23T13:51:19.111Z,103787.67
2019-02-23T13:54:38.834Z,103780.84
2019-02-23T13:57:56.237Z,103784.22
2019-02-23T14:01:27.728Z,103778.52
2019-02-23T14:04:49.923Z,103779.77
2019-02-23T14:08:29.200Z,103776.77
2019-02-23T14:11:56.970Z,103771.48
2019-02-23T14:15:10.296Z,103765.61
2019-02-23T14:21:45.992Z,103758.72
2019-02-23T14:24:55.989Z,103766.84
2019-02-23T14:28:11.905Z,103771.42
2019-02-23T14:31:31.170Z,103769.62
2019-02-23T14:34:55.019Z,103767.80
2019-02-23T14:38:32.649Z,103783.72
2019-02-23T14:41:48.534Z,103786.66
2019-02-23T14:45:11.075Z,103787.59
2019-02-23T14:48:34.956Z,103799.27
2019-02-23T14:51:57.196Z,103800.61
2019-02-23T14:55:27.327Z,103787.89
2019-02-23T14:58:34.588Z,103791.28
2019-02-23T15:01:47.720Z,103792.43
2019-02-23T15:05:16.134Z,103790.61
2019-02-23T15:08:32.008Z,103779.69
2019-02-23T15:11:48.469Z,103773.20
2019-02-23T15:15:13.873Z,103768.13
2019-02-23T15:18:42.156Z,103760.81
2019-02-23T15:21:52.426Z,103757.75
2019-02-23T15:25:16.252Z,103756.55
2019-02-23T15:28:38.953Z,103750.17
2019-02-23T15:32:12.205Z,103749.82
2019-02-23T15:35:25.315Z,103755.59
2019-02-23T15:38:50.994Z,103754.23
2019-02-23T15:42:22.495Z,103750.86
2019-02-23T15:45:29.797Z,103735.87
2019-02-23T15:48:46.215Z,103742.28
2019-02-23T15:51:50.317Z,103743.12
2019-02-23T15:54:54.456Z,103733.62
2019-02-23T15:57:58.583Z,103730.00
2019-02-23T16:01:02.724Z,103732.83
2019-02-23T16:04:06.846Z,103726.40
2019-02-23T16:07:10.989Z,103723.64
2019-02-23T16:10:17.658Z,103735.59
2019-02-23T16:13:21.136Z,103726.89
2019-02-23T16:16:25.280Z,103726.03
2019-02-23T16:19:29.405Z,103721.50
2019-02-23T16:22:33.550Z,103718.70
2019-02-23T16:25:38.523Z,103712.48
2019-02-23T16:28:42.810Z,103709.19
2019-02-23T16:31:46.953Z,103709.31
2019-02-23T16:34:51.073Z,103716.30
2019-02-23T16:37:55.222Z,103724.55
2019-02-23T16:40:59.373Z,103724.59
2019-02-23T16:44:03.499Z,103725.48
2019-02-23T16:47:07.651Z,103719.55
2019-02-23T16:50:11.775Z,103717.25
2019-02-23T16:53:15.919Z,103720.30
2019-02-23T16:56:20.042Z,103730.52
2019-02-23T16:59:24.194Z,103726.00
2019-02-23T17:02:28.707Z,103726.77
2019-02-23T17:05:32.831Z,103718.06
2019-02-23T17:08:37.057Z,103723.64
2019-02-23T17:11:41.281Z,103719.20
2019-02-23T17:14:45.413Z,103720.09
2019-02-23T17:17:49.568Z,103722.24
2019-02-23T17:20:53.696Z,103723.64
2019-02-23T17:23:57.915Z,103734.09
2019-02-23T17:27:02.059Z,103728.03
2019-02-23T17:30:08.120Z,103727.14
2019-02-23T17:33:12.270Z,103727.62
2019-02-23T17:36:16.393Z,103730.25
2019-02-23T17:39:20.542Z,103729.43
2019-02-23T17:42:28.106Z,103740.39
2019-02-23T17:45:30.517Z,103743.84
2019-02-23T17:48:34.670Z,103742.64
2019-02-23T17:51:38.794Z,103739.18
2019-02-23T17:54:42.944Z,103737.09
2019-02-23T17:57:47.085Z,103733.73
2019-02-23T18:00:51.215Z,103733.28
2019-02-23T18:03:55.360Z,103739.85
2019-02-23T18:06:59.505Z,103742.14
2019-02-23T18:10:04.203Z,103746.52
2019-02-23T18:13:08.349Z,103736.97
2019-02-23T18:16:12.485Z,103736.30
2019-02-23T18:19:16.626Z,103739.53
2019-02-23T18:22:20.768Z,103743.50
2019-02-23T18:25:24.897Z,103750.48
2019-02-23T18:28:29.054Z,103751.41
2019-02-23T18:31:33.177Z,103745.81
2019-02-23T18:34:37.321Z,103747.50
2019-02-23T18:37:41.470Z,103747.19
2019-02-23T18:40:45.599Z,103743.85
2019-02-23T18:43:49.743Z,103750.83
2019-02-23T18:46:53.881Z,103750.00
2019-02-23T18:49:58.013Z,103750.42
2019-02-23T18:53:02.152Z,103745.63
2019-02-23T18:56:06.747Z,103746.07
2019-02-23T18:59:10.895Z,103746.48
2019-02-23T19:02:15.018Z,103738.67
2019-02-23T19:05:19.167Z,103740.39
2019-02-23T19:08:23.320Z,103731.70
2019-02-23T19:11:27.443Z,103737.83
2019-02-23T19:14:31.585Z,103733.98
2019-02-23T19:17:35.729Z,103735.28
2019-02-23T19:20:39.858Z,103744.39
2019-02-23T19:23:44.004Z,103743.19
2019-02-23T19:26:48.125Z,103737.98
2019-02-23T19:29:52.269Z,103741.47
2019-02-23T19:32:56.418Z,103740.70
2019-02-23T19:36:00.543Z,103740.73
2019-02-23T19:39:05.353Z,103740.80
2019-02-23T19:42:09.481Z,103735.69
2019-02-23T19:45:13.625Z,103731.34
2019-02-23T19:48:17.769Z,103730.98
2019-02-23T19:51:21.892Z,103731.87
2019-02-23T19:54:26.038Z,103728.03
2019-02-23T19:57:30.180Z,103730.28
2019-02-23T20:00:34.326Z,103726.38
2019-02-23T20:03:38.545Z,103725.49
2019-02-23T20:06:42.660Z,103718.58
2019-02-23T20:09:46.811Z,103709.98
2019-02-23T20:12:50.977Z,103717.84
2019-02-23T20:15:55.101Z,103720.50
2019-02-23T20:18:59.256Z,103720.03
2019-02-23T20:22:03.379Z,103720.53
2019-02-23T20:25:08.964Z,103717.43
2019-02-23T20:28:13.109Z,103717.48
2019-02-23T20:31:17.239Z,103717.55
2019-02-23T20:34:21.387Z,103713.70
2019-02-23T20:37:25.514Z,103713.73
2019-02-23T20:40:29.653Z,103714.18
2019-02-23T20:43:33.802Z,103706.43
2019-02-23T20:46:37.933Z,103715.45
2019-02-23T20:49:42.115Z,103704.20
2019-02-23T20:52:46.239Z,103706.97
2019-02-23T20:55:50.382Z,103699.64
2019-02-23T20:58:54.525Z,103701.83
2019-02-23T21:01:58.649Z,103716.57
2019-02-23T21:05:02.798Z,103706.59
2019-02-23T21:08:06.965Z,103703.60
2019-02-23T21:11:11.090Z,103698.46
2019-02-23T21:14:15.238Z,103694.59
2019-02-23T21:17:19.366Z,103693.30
2019-02-23T21:20:23.515Z,103693.82
2019-02-23T21:23:27.657Z,103700.67
2019-02-23T21:26:31.776Z,103686.41
2019-02-23T21:29:36.019Z,103687.41
2019-02-23T21:32:40.145Z,103687.41
2019-02-23T21:35:44.292Z,103687.86
2019-02-23T21:38:48.434Z,103686.64
2019-02-23T21:41:52.563Z,103679.23
2019-02-23T21:44:57.975Z,103672.81
2019-02-23T21:48:02.108Z,103671.93
2019-02-23T21:51:06.254Z,103672.48
2019-02-23T21:54:11.141Z,103674.20
2019-02-23T21:57:21.980Z,103677.71
2019-02-23T22:00:21.347Z,103669.50
2019-02-23T22:03:25.490Z,103662.23
2019-02-23T22:06:29.617Z,103662.68
2019-02-23T22:09:33.783Z,103659.70
2019-02-23T22:12:37.896Z,103653.22
2019-02-23T22:15:42.041Z,103644.55
2019-02-23T22:18:46.196Z,103646.30
2019-02-23T22:21:50.312Z,103648.03
2019-02-23T22:24:54.454Z,103639.47
2019-02-23T22:27:58.580Z,103639.08
2019-02-23T22:31:02.729Z,103642.09
2019-02-23T22:34:06.878Z,103635.38
2019-02-23T22:37:11.137Z,103632.83
2019-02-23T22:40:15.331Z,103628.41
2019-02-23T22:43:19.450Z,103626.23
2019-02-23T22:46:23.614Z,103628.03
2019-02-23T22:49:27.741Z,103620.87
2019-02-23T22:52:31.861Z,103618.73
2019-02-23T22:55:36.007Z,103618.27
2019-02-23T22:58:40.131Z,103614.73
2019-02-23T23:01:44.278Z,103609.19
2019-02-23T23:04:48.420Z,103614.19
2019-02-23T23:07:52.545Z,103612.66
2019-02-23T23:10:56.692Z,103610.56
2019-02-23T23:14:00.813Z,103605.23
2019-02-23T23:17:04.958Z,103611.36
2019-02-23T23:20:09.166Z,103611.34
2019-02-23T23:23:13.285Z,103616.92
2019-02-23T23:26:17.431Z,103614.02
2019-02-23T23:29:21.553Z,103608.25
2019-02-23T23:32:25.701Z,103611.75
2019-02-23T23:35:29.827Z,103607.74
2019-02-23T23:38:33.968Z,103606.58
2019-02-23T23:41:38.095Z,103607.05
2019-02-23T23:44:42.246Z,103606.17
2019-02-23T23:47:46.391Z,103619.98
2019-02-23T23:50:50.510Z,103620.92
2019-02-23T23:53:54.654Z,103622.66
2019-02-23T23:56:58.777Z,103621.70
